Time;durP1;ratioP1;P1;durP2;ratioP2;P2;SDS_P1;SDS_P2;PMS_P1;PMS_P2;Temp;Humidity;BMP_temperature;BMP_pressure;BME280_temperature;BME280_humidity;BME280_pressure;Samples;Min_cycle;Max_cycle;Signal;HPM_P1;HPM_P2
2022/12/23 00:00:34;;;;;;;0.40;0.40;;;;;;;;;;5044522;28;20176;-84
2022/12/23 00:03:00;;;;;;;1.00;1.00;;;;;;;;;;5049058;28;20247;-85
2022/12/23 00:05:25;;;;;;;2.07;1.00;;;;;;;;;;5049066;28;20273;-84
2022/12/23 00:07:50;;;;;;;1.30;1.13;;;;;;;;;;5043243;28;20296;-84
2022/12/23 00:10:15;;;;;;;2.03;1.00;;;;;;;;;;5050995;28;20213;-84
2022/12/23 00:15:25;;;;;;;1.80;1.03;;;;;;;;;;5046989;28;20187;-84
2022/12/23 00:17:50;;;;;;;1.40;0.60;;;;;;;;;;5043707;28;20195;-84
2022/12/23 00:20:15;;;;;;;0.80;0.80;;;;;;;;;;5046418;28;20208;-84
2022/12/23 00:25:40;;;;;;;0.60;0.50;;;;;;;;;;5047984;28;20197;-85
2022/12/23 00:28:13;;;;;;;1.03;0.80;;;;;;;;;;5045465;28;20261;-84
2022/12/23 00:30:47;;;;;;;0.70;0.70;;;;;;;;;;5047831;28;20261;-84
2022/12/23 00:33:13;;;;;;;0.83;0.77;;;;;;;;;;5040405;28;20205;-85
2022/12/23 00:35:38;;;;;;;1.00;0.90;;;;;;;;;;5044964;28;20249;-84
2022/12/23 00:38:04;;;;;;;0.80;0.80;;;;;;;;;;5038093;28;20220;-84
2022/12/23 00:43:13;;;;;;;0.73;0.60;;;;;;;;;;5046273;28;20201;-85
2022/12/23 00:45:38;;;;;;;0.73;0.70;;;;;;;;;;5048563;28;20182;-85
2022/12/23 00:50:49;;;;;;;0.60;0.60;;;;;;;;;;5046071;28;20189;-84
2022/12/23 00:53:15;;;;;;;0.77;0.70;;;;;;;;;;5047715;28;20185;-84
2022/12/23 00:55:40;;;;;;;0.50;0.50;;;;;;;;;;5045748;28;20185;-84
2022/12/23 00:58:05;;;;;;;0.70;0.60;;;;;;;;;;5044852;28;20319;-84
2022/12/23 01:05:59;;;;;;;0.50;0.50;;;;;;;;;;5042373;28;20185;-83
2022/12/23 01:08:24;;;;;;;0.33;0.33;;;;;;;;;;5044236;28;20210;-84
2022/12/23 01:10:49;;;;;;;0.67;0.60;;;;;;;;;;5043755;28;20225;-84
2022/12/23 01:13:14;;;;;;;0.20;0.20;;;;;;;;;;5049198;28;20177;-84
2022/12/23 01:15:40;;;;;;;0.43;0.43;;;;;;;;;;5044937;28;20182;-85
2022/12/23 01:18:05;;;;;;;0.60;0.60;;;;;;;;;;5043522;28;20202;-84
2022/12/23 01:20:30;;;;;;;0.63;0.63;;;;;;;;;;5046154;28;20178;-84
2022/12/23 01:22:55;;;;;;;0.40;0.40;;;;;;;;;;5044580;28;20182;-85
2022/12/23 01:25:20;;;;;;;0.43;0.43;;;;;;;;;;5045051;28;20185;-84
2022/12/23 01:27:46;;;;;;;0.37;0.37;;;;;;;;;;5047899;28;20210;-84
2022/12/23 01:30:11;;;;;;;0.63;0.63;;;;;;;;;;5045555;28;20175;-84
2022/12/23 01:32:36;;;;;;;0.50;0.50;;;;;;;;;;5040458;28;20249;-84
2022/12/23 01:35:01;;;;;;;0.60;0.60;;;;;;;;;;5045459;28;20181;-84
2022/12/23 01:37:27;;;;;;;0.43;0.43;;;;;;;;;;5036247;28;20182;-85
2022/12/23 01:39:52;;;;;;;0.47;0.47;;;;;;;;;;5035148;28;20225;-84
2022/12/23 01:45:12;;;;;;;0.40;0.40;;;;;;;;;;5044397;28;20231;-85
2022/12/23 01:47:39;;;;;;;0.57;0.57;;;;;;;;;;5037803;28;20207;-84
2022/12/23 01:50:24;;;;;;;2.17;0.60;;;;;;;;;;5037700;28;20236;-85
2022/12/23 01:52:50;;;;;;;0.93;0.60;;;;;;;;;;5038571;28;20186;-84
2022/12/23 01:55:17;;;;;;;0.73;0.30;;;;;;;;;;5031952;28;20187;-84
2022/12/23 01:57:43;;;;;;;0.77;0.30;;;;;;;;;;5032300;28;20191;-84
2022/12/23 02:05:37;;;;;;;0.23;0.23;;;;;;;;;;5049630;28;20193;-84
2022/12/23 02:10:49;;;;;;;0.50;0.30;;;;;;;;;;5046049;28;20200;-85
2022/12/23 02:13:26;;;;;;;0.33;0.33;;;;;;;;;;5029532;28;20232;-84
2022/12/23 02:16:17;;;;;;;0.27;0.27;;;;;;;;;;5053683;28;20247;-85
2022/12/23 02:18:45;;;;;;;0.77;0.60;;;;;;;;;;5026151;28;20202;-84
2022/12/23 02:21:16;;;;;;;0.53;0.50;;;;;;;;;;5038342;28;20243;-84
2022/12/23 02:24:00;;;;;;;0.40;0.40;;;;;;;;;;5040657;28;20185;-84
2022/12/23 02:26:44;;;;;;;0.50;0.50;;;;;;;;;;5052488;28;20205;-85
2022/12/23 02:29:09;;;;;;;0.53;0.53;;;;;;;;;;5029184;28;20185;-84
2022/12/23 02:31:35;;;;;;;0.67;0.67;;;;;;;;;;5034678;28;20174;-85
2022/12/23 02:34:03;;;;;;;0.43;0.43;;;;;;;;;;5031653;28;20175;-85
2022/12/23 02:36:32;;;;;;;0.40;0.40;;;;;;;;;;5022456;28;20224;-85
2022/12/23 02:39:03;;;;;;;0.90;0.90;;;;;;;;;;5013446;28;20207;-85
2022/12/23 02:41:28;;;;;;;0.80;0.80;;;;;;;;;;5028553;28;20222;-84
2022/12/23 02:44:01;;;;;;;0.30;0.30;;;;;;;;;;5007538;28;20222;-84
2022/12/23 02:46:31;;;;;;;0.37;0.20;;;;;;;;;;5028580;28;20217;-84
2022/12/23 02:49:00;;;;;;;0.20;0.20;;;;;;;;;;5020631;28;20175;-84
2022/12/23 02:51:28;;;;;;;0.20;0.20;;;;;;;;;;5011907;28;20202;-84
2022/12/23 02:53:55;;;;;;;0.10;0.10;;;;;;;;;;5008225;28;20171;-85
2022/12/23 02:56:22;;;;;;;0.40;0.40;;;;;;;;;;5006557;28;20270;-84
2022/12/23 02:59:07;;;;;;;0.20;0.20;;;;;;;;;;5003622;28;20174;-85
2022/12/23 03:01:33;;;;;;;0.20;0.20;;;;;;;;;;5005043;28;20184;-84
2022/12/23 03:03:58;;;;;;;0.20;0.20;;;;;;;;;;5011054;28;20187;-85
2022/12/23 03:06:26;;;;;;;0.30;0.30;;;;;;;;;;5017902;28;20181;-84
2022/12/23 03:08:53;;;;;;;0.20;0.20;;;;;;;;;;5016649;28;20186;-85
2022/12/23 03:11:18;;;;;;;0.23;0.23;;;;;;;;;;5012351;28;20246;-85
2022/12/23 03:13:52;;;;;;;0.90;0.20;;;;;;;;;;5016474;28;20171;-84
2022/12/23 03:16:21;;;;;;;0.40;0.40;;;;;;;;;;5013016;28;20179;-84
2022/12/23 03:19:05;;;;;;;0.90;0.33;;;;;;;;;;5017237;28;20208;-84
2022/12/23 03:21:38;;;;;;;0.50;0.50;;;;;;;;;;5016930;28;20175;-84
2022/12/23 03:24:06;;;;;;;0.30;0.30;;;;;;;;;;5011894;28;20240;-85
2022/12/23 03:26:35;;;;;;;0.40;0.40;;;;;;;;;;5013987;28;20205;-85
2022/12/23 03:29:04;;;;;;;0.20;0.20;;;;;;;;;;5007860;28;20205;-84
2022/12/23 03:31:30;;;;;;;0.50;0.50;;;;;;;;;;5007171;28;20180;-84
2022/12/23 03:33:58;;;;;;;0.20;0.20;;;;;;;;;;5004577;28;20172;-84
2022/12/23 03:36:24;;;;;;;0.43;0.43;;;;;;;;;;5033047;28;20218;-85
2022/12/23 03:38:52;;;;;;;0.67;0.67;;;;;;;;;;5043735;28;20182;-84
2022/12/23 03:41:20;;;;;;;0.80;0.80;;;;;;;;;;5062257;28;20183;-84
2022/12/23 03:43:48;;;;;;;1.63;1.53;;;;;;;;;;5048772;28;20174;-84
2022/12/23 03:46:26;;;;;;;2.33;2.13;;;;;;;;;;5048189;28;20178;-84
2022/12/23 03:48:53;;;;;;;3.23;3.03;;;;;;;;;;5045045;28;20170;-85
2022/12/23 03:51:22;;;;;;;2.90;2.70;;;;;;;;;;5043847;28;20182;-85
2022/12/23 03:53:50;;;;;;;2.30;2.20;;;;;;;;;;5046023;28;20181;-84
2022/12/23 03:56:18;;;;;;;1.80;1.70;;;;;;;;;;5044103;28;20180;-85
2022/12/23 03:58:48;;;;;;;1.80;1.70;;;;;;;;;;5048450;28;20347;-84
2022/12/23 04:01:13;;;;;;;1.60;1.50;;;;;;;;;;5041951;28;20203;-85
2022/12/23 04:03:38;;;;;;;1.30;1.10;;;;;;;;;;5043257;28;20275;-84
2022/12/23 04:06:04;;;;;;;1.10;1.00;;;;;;;;;;5061494;28;20225;-84
2022/12/23 04:08:34;;;;;;;1.27;1.20;;;;;;;;;;5044242;28;20209;-84
2022/12/23 04:11:00;;;;;;;1.50;1.40;;;;;;;;;;5049948;28;20255;-84
2022/12/23 04:13:26;;;;;;;1.70;1.60;;;;;;;;;;5047722;28;20321;-84
2022/12/23 04:15:51;;;;;;;1.50;1.40;;;;;;;;;;5048837;28;20177;-84
2022/12/23 04:18:16;;;;;;;1.37;1.20;;;;;;;;;;5041413;28;20204;-84
2022/12/23 04:20:41;;;;;;;1.03;1.03;;;;;;;;;;5042766;28;20232;-84
2022/12/23 04:23:07;;;;;;;1.30;1.20;;;;;;;;;;5037088;28;20178;-85
2022/12/23 04:25:32;;;;;;;1.10;1.10;;;;;;;;;;5051663;28;20188;-84
2022/12/23 04:27:57;;;;;;;1.30;1.20;;;;;;;;;;5041220;28;20213;-84
2022/12/23 04:30:22;;;;;;;1.50;1.40;;;;;;;;;;5043851;28;20178;-84
2022/12/23 04:32:48;;;;;;;1.90;1.80;;;;;;;;;;5050441;28;20181;-85
2022/12/23 04:35:13;;;;;;;1.70;1.60;;;;;;;;;;5047111;28;20236;-84
2022/12/23 04:37:38;;;;;;;1.67;1.57;;;;;;;;;;5009278;28;20214;-84
2022/12/23 04:40:04;;;;;;;1.90;1.80;;;;;;;;;;5008671;28;20179;-84
2022/12/23 04:42:29;;;;;;;2.23;2.07;;;;;;;;;;5008485;28;20186;-84
2022/12/23 04:44:54;;;;;;;1.90;1.80;;;;;;;;;;5007604;28;20184;-84
2022/12/23 04:47:20;;;;;;;1.80;1.70;;;;;;;;;;5013184;28;20203;-85
2022/12/23 04:49:45;;;;;;;2.43;2.23;;;;;;;;;;5017785;28;20267;-85
2022/12/23 04:52:10;;;;;;;2.77;2.57;;;;;;;;;;5013074;28;20170;-85
2022/12/23 04:54:35;;;;;;;3.40;3.00;;;;;;;;;;5007540;28;20179;-85
2022/12/23 04:57:01;;;;;;;2.73;2.53;;;;;;;;;;5029763;28;20191;-84
2022/12/23 04:59:26;;;;;;;2.10;2.00;;;;;;;;;;5012253;28;20203;-84
2022/12/23 05:01:51;;;;;;;1.77;1.67;;;;;;;;;;5009139;28;20271;-85
2022/12/23 05:04:16;;;;;;;2.20;2.00;;;;;;;;;;5012526;28;20273;-85
2022/12/23 05:06:41;;;;;;;1.60;1.50;;;;;;;;;;5031410;28;20233;-85
2022/12/23 05:09:07;;;;;;;1.70;1.60;;;;;;;;;;5019000;28;20175;-84
2022/12/23 05:11:32;;;;;;;1.73;1.63;;;;;;;;;;5024629;28;20183;-84
2022/12/23 05:13:57;;;;;;;1.77;1.67;;;;;;;;;;5017923;28;20175;-84
2022/12/23 05:16:22;;;;;;;1.87;1.53;;;;;;;;;;5012362;28;20188;-85
2022/12/23 05:18:48;;;;;;;1.50;1.40;;;;;;;;;;5009569;28;20192;-84
2022/12/23 05:21:13;;;;;;;1.93;1.83;;;;;;;;;;5015582;28;20261;-84
2022/12/23 05:23:38;;;;;;;1.60;1.50;;;;;;;;;;5018974;28;20237;-85
2022/12/23 05:26:03;;;;;;;4.63;2.47;;;;;;;;;;5014745;28;20175;-84
2022/12/23 05:28:29;;;;;;;2.67;2.47;;;;;;;;;;5005861;28;20208;-84
2022/12/23 05:31:02;;;;;;;1.93;1.83;;;;;;;;;;5008431;28;20178;-84
2022/12/23 05:33:28;;;;;;;2.03;1.83;;;;;;;;;;5017445;28;20206;-85
2022/12/23 05:35:53;;;;;;;2.70;2.50;;;;;;;;;;5021536;28;20225;-85
2022/12/23 05:38:19;;;;;;;3.20;2.90;;;;;;;;;;5048615;28;20208;-84
2022/12/23 05:40:44;;;;;;;3.37;3.10;;;;;;;;;;5051476;28;20282;-85
2022/12/23 05:43:09;;;;;;;1.83;1.73;;;;;;;;;;5049092;28;20174;-84
2022/12/23 05:45:35;;;;;;;3.13;2.93;;;;;;;;;;5045254;28;20186;-85
2022/12/23 05:48:00;;;;;;;2.97;2.77;;;;;;;;;;5051699;28;20198;-84
2022/12/23 05:50:25;;;;;;;3.10;2.90;;;;;;;;;;5052282;28;20178;-84
2022/12/23 05:52:50;;;;;;;3.67;3.37;;;;;;;;;;5046232;28;20187;-84
2022/12/23 05:55:16;;;;;;;3.40;3.10;;;;;;;;;;5047434;28;20236;-85
2022/12/23 05:57:41;;;;;;;8.47;3.63;;;;;;;;;;5049313;28;20178;-85
2022/12/23 06:00:06;;;;;;;2.57;2.37;;;;;;;;;;5048204;28;20204;-83
2022/12/23 06:02:31;;;;;;;2.90;2.60;;;;;;;;;;5052918;28;20255;-83
2022/12/23 06:04:57;;;;;;;2.23;2.03;;;;;;;;;;5047866;28;20240;-82
2022/12/23 06:07:22;;;;;;;3.27;3.07;;;;;;;;;;5049113;28;20247;-82
2022/12/23 06:09:47;;;;;;;2.30;2.10;;;;;;;;;;5048600;28;20186;-83
2022/12/23 06:12:12;;;;;;;1.70;1.60;;;;;;;;;;5050956;28;20174;-82
2022/12/23 06:14:38;;;;;;;1.87;1.77;;;;;;;;;;5048375;28;20171;-82
2022/12/23 06:17:03;;;;;;;1.93;1.83;;;;;;;;;;5049155;28;20206;-82
2022/12/23 06:19:28;;;;;;;5.10;3.37;;;;;;;;;;5041421;28;20175;-83
2022/12/23 06:21:53;;;;;;;1.90;1.80;;;;;;;;;;5040857;28;20179;-82
2022/12/23 06:24:18;;;;;;;1.57;1.47;;;;;;;;;;5049913;28;20178;-83
2022/12/23 06:26:44;;;;;;;2.40;2.20;;;;;;;;;;5050498;28;20202;-82
2022/12/23 06:29:09;;;;;;;2.10;1.90;;;;;;;;;;5052124;28;20286;-82
2022/12/23 06:31:34;;;;;;;1.90;1.80;;;;;;;;;;5047132;28;20232;-82
2022/12/23 06:34:00;;;;;;;1.30;1.20;;;;;;;;;;5051254;28;20193;-82
2022/12/23 06:36:25;;;;;;;1.43;1.33;;;;;;;;;;5026174;28;21570;-83
2022/12/23 06:38:50;;;;;;;1.40;1.30;;;;;;;;;;5011717;28;20179;-83
2022/12/23 06:41:15;;;;;;;1.10;1.10;;;;;;;;;;5015390;28;20183;-83
2022/12/23 06:43:41;;;;;;;1.40;1.30;;;;;;;;;;5013125;28;20178;-83
2022/12/23 06:46:06;;;;;;;1.23;1.17;;;;;;;;;;5019418;28;20171;-83
2022/12/23 06:48:31;;;;;;;1.40;1.33;;;;;;;;;;5017910;28;20206;-83
2022/12/23 06:50:56;;;;;;;1.10;1.10;;;;;;;;;;5019525;28;20172;-83
2022/12/23 06:53:21;;;;;;;1.43;1.33;;;;;;;;;;5009266;28;20181;-82
2022/12/23 06:55:47;;;;;;;1.27;1.20;;;;;;;;;;5008499;28;20188;-82
2022/12/23 06:58:12;;;;;;;1.60;1.50;;;;;;;;;;5010442;28;20183;-82
2022/12/23 07:00:37;;;;;;;2.30;2.20;;;;;;;;;;5012970;28;20213;-82
2022/12/23 07:03:02;;;;;;;1.47;1.10;;;;;;;;;;5011124;28;20278;-82
2022/12/23 07:05:28;;;;;;;1.20;1.10;;;;;;;;;;5012663;28;20265;-82
2022/12/23 07:07:53;;;;;;;1.40;1.30;;;;;;;;;;5008925;28;20208;-83
2022/12/23 07:10:18;;;;;;;1.97;1.87;;;;;;;;;;5008844;28;20363;-83
2022/12/23 07:12:43;;;;;;;1.40;1.30;;;;;;;;;;5012872;28;20171;-83
2022/12/23 07:15:09;;;;;;;1.30;1.20;;;;;;;;;;5013179;28;20175;-82
2022/12/23 07:17:34;;;;;;;1.87;1.27;;;;;;;;;;5010697;28;20201;-83
2022/12/23 07:19:59;;;;;;;2.00;1.90;;;;;;;;;;5009577;28;20183;-82
2022/12/23 07:22:24;;;;;;;1.60;1.50;;;;;;;;;;5010029;28;20179;-83
2022/12/23 07:24:50;;;;;;;1.37;1.27;;;;;;;;;;5025388;28;20182;-82
2022/12/23 07:27:15;;;;;;;1.37;1.27;;;;;;;;;;5004239;28;20214;-83
2022/12/23 07:29:40;;;;;;;2.00;1.30;;;;;;;;;;5011624;28;20179;-82
2022/12/23 07:32:05;;;;;;;1.80;1.70;;;;;;;;;;5012511;28;20221;-82
2022/12/23 07:34:31;;;;;;;1.40;1.30;;;;;;;;;;5013966;28;20317;-82
2022/12/23 07:36:56;;;;;;;1.80;1.70;;;;;;;;;;5011549;28;20257;-82
2022/12/23 07:39:21;;;;;;;1.23;1.20;;;;;;;;;;5010489;28;20257;-82
2022/12/23 07:41:46;;;;;;;1.50;1.30;;;;;;;;;;5001441;28;20171;-82
2022/12/23 07:44:12;;;;;;;1.50;1.40;;;;;;;;;;5030670;28;20217;-82
2022/12/23 07:46:37;;;;;;;1.93;1.70;;;;;;;;;;5012903;28;20178;-82
2022/12/23 07:49:03;;;;;;;1.20;1.10;;;;;;;;;;5011261;28;20183;-82
2022/12/23 07:51:28;;;;;;;7.10;4.10;;;;;;;;;;5007763;28;20175;-82
2022/12/23 07:53:53;;;;;;;0.90;0.90;;;;;;;;;;5013320;28;20179;-82
2022/12/23 07:56:18;;;;;;;2.70;2.50;;;;;;;;;;5009295;28;20181;-82
2022/12/23 07:58:51;;;;;;;0.80;0.80;;;;;;;;;;5012298;28;20438;-82
2022/12/23 08:01:16;;;;;;;1.60;1.50;;;;;;;;;;5023354;28;20258;-83
2022/12/23 08:03:42;;;;;;;2.20;2.00;;;;;;;;;;5005515;28;20279;-82
2022/12/23 08:06:08;;;;;;;1.80;1.63;;;;;;;;;;5010809;28;20176;-82
2022/12/23 08:08:34;;;;;;;2.53;1.90;;;;;;;;;;5007683;28;20238;-83
2022/12/23 08:11:01;;;;;;;2.80;2.60;;;;;;;;;;5016996;28;20202;-83
2022/12/23 08:13:26;;;;;;;1.60;1.50;;;;;;;;;;5026512;28;20202;-82
2022/12/23 08:15:58;;;;;;;2.07;1.87;;;;;;;;;;5015046;28;20171;-82
2022/12/23 08:18:24;;;;;;;3.80;3.07;;;;;;;;;;5014742;28;20212;-82
2022/12/23 08:20:56;;;;;;;6.53;4.00;;;;;;;;;;5012441;28;20241;-83
2022/12/23 08:23:22;;;;;;;3.70;2.80;;;;;;;;;;5010894;28;20186;-82
2022/12/23 08:25:47;;;;;;;1.33;1.23;;;;;;;;;;5008888;28;20211;-82
2022/12/23 08:28:12;;;;;;;1.83;1.40;;;;;;;;;;5028991;28;20321;-82
2022/12/23 08:30:38;;;;;;;3.43;3.00;;;;;;;;;;5008955;28;20198;-82
2022/12/23 08:33:03;;;;;;;12.53;8.47;;;;;;;;;;5005694;28;20199;-83
2022/12/23 08:35:29;;;;;;;9.83;7.73;;;;;;;;;;5013535;28;20293;-82
2022/12/23 08:37:54;;;;;;;10.87;8.37;;;;;;;;;;5044710;28;20239;-83
2022/12/23 08:40:19;;;;;;;9.87;8.13;;;;;;;;;;5048253;28;21848;-83
2022/12/23 08:42:44;;;;;;;6.17;5.57;;;;;;;;;;5048756;28;20177;-82
2022/12/23 08:45:10;;;;;;;2.43;2.23;;;;;;;;;;5039996;28;20725;-83
2022/12/23 08:47:35;;;;;;;3.70;3.40;;;;;;;;;;5047962;28;20208;-82
2022/12/23 08:50:00;;;;;;;2.17;2.07;;;;;;;;;;5045444;28;20233;-83
2022/12/23 08:52:26;;;;;;;1.20;1.20;;;;;;;;;;5048056;28;20182;-83
2022/12/23 08:54:51;;;;;;;1.40;1.30;;;;;;;;;;5042069;28;20170;-83
2022/12/23 08:57:17;;;;;;;2.40;2.20;;;;;;;;;;5044055;28;20185;-82
2022/12/23 08:59:42;;;;;;;1.73;1.63;;;;;;;;;;5047669;28;20181;-83
2022/12/23 09:02:08;;;;;;;1.30;1.20;;;;;;;;;;5040874;28;20174;-83
2022/12/23 09:04:35;;;;;;;1.70;1.60;;;;;;;;;;5045699;28;20183;-82
2022/12/23 09:07:00;;;;;;;1.60;1.50;;;;;;;;;;5042081;28;20220;-82
2022/12/23 09:09:25;;;;;;;0.60;0.60;;;;;;;;;;5042206;28;20295;-83
2022/12/23 09:11:50;;;;;;;0.80;0.80;;;;;;;;;;5046624;28;20210;-83
2022/12/23 09:14:15;;;;;;;0.40;0.40;;;;;;;;;;5044611;28;20182;-82
2022/12/23 09:16:41;;;;;;;1.00;1.00;;;;;;;;;;5045182;28;20183;-83
2022/12/23 09:19:06;;;;;;;1.27;1.23;;;;;;;;;;5043041;28;20186;-83
2022/12/23 09:21:32;;;;;;;0.83;0.83;;;;;;;;;;5043946;28;20171;-82
2022/12/23 09:23:57;;;;;;;1.53;1.40;;;;;;;;;;5045783;28;20174;-82
2022/12/23 09:26:24;;;;;;;0.40;0.40;;;;;;;;;;5050030;28;20175;-82
2022/12/23 09:28:49;;;;;;;0.93;0.70;;;;;;;;;;5031736;28;20214;-83
2022/12/23 09:31:14;;;;;;;0.40;0.40;;;;;;;;;;5040734;28;20635;-82
2022/12/23 09:33:40;;;;;;;1.70;1.60;;;;;;;;;;5045671;28;20266;-82
2022/12/23 09:36:05;;;;;;;4.37;3.23;;;;;;;;;;5042114;28;20217;-83
2022/12/23 09:38:31;;;;;;;2.97;2.67;;;;;;;;;;5049874;28;20226;-83
2022/12/23 09:41:15;;;;;;;2.17;1.93;;;;;;;;;;5043595;28;20535;-83
2022/12/23 09:44:06;;;;;;;1.90;1.80;;;;;;;;;;5061065;28;20215;-83
2022/12/23 09:46:32;;;;;;;0.97;0.97;;;;;;;;;;5060994;28;20195;-83
2022/12/23 09:49:01;;;;;;;1.97;1.87;;;;;;;;;;5043903;28;20263;-83
2022/12/23 09:51:27;;;;;;;1.60;1.50;;;;;;;;;;5046685;28;20181;-82
2022/12/23 09:54:02;;;;;;;1.40;1.30;;;;;;;;;;5046946;28;20204;-83
2022/12/23 09:56:36;;;;;;;2.73;2.53;;;;;;;;;;5048679;28;20232;-83
2022/12/23 09:59:04;;;;;;;2.20;2.10;;;;;;;;;;5045146;28;20264;-83
2022/12/23 10:01:33;;;;;;;4.07;3.67;;;;;;;;;;5038200;28;20183;-82
2022/12/23 10:04:25;;;;;;;1.90;1.80;;;;;;;;;;5038976;28;20180;-82
2022/12/23 10:07:03;;;;;;;1.40;1.30;;;;;;;;;;5047172;28;20202;-83
2022/12/23 10:09:29;;;;;;;2.87;2.57;;;;;;;;;;5041728;28;20183;-83
2022/12/23 10:11:54;;;;;;;3.83;3.43;;;;;;;;;;5044911;28;20174;-83
2022/12/23 10:14:39;;;;;;;1.00;1.00;;;;;;;;;;5043090;28;20179;-82
2022/12/23 10:17:12;;;;;;;0.97;0.90;;;;;;;;;;5047386;28;20184;-82
2022/12/23 10:19:40;;;;;;;0.77;0.77;;;;;;;;;;5050488;28;20734;-83
2022/12/23 10:22:12;;;;;;;1.03;0.90;;;;;;;;;;5044107;28;20188;-83
2022/12/23 10:24:39;;;;;;;0.70;0.70;;;;;;;;;;5044506;28;20193;-82
2022/12/23 10:27:11;;;;;;;2.30;2.10;;;;;;;;;;5051695;28;20345;-83
2022/12/23 10:29:36;;;;;;;1.10;0.97;;;;;;;;;;5048856;28;20190;-82
2022/12/23 10:32:14;;;;;;;1.60;1.50;;;;;;;;;;5049767;28;20185;-82
2022/12/23 10:34:45;;;;;;;0.97;0.97;;;;;;;;;;5046959;28;20217;-83
2022/12/23 10:37:15;;;;;;;1.00;0.90;;;;;;;;;;5048627;28;20234;-82
2022/12/23 10:39:48;;;;;;;1.30;1.20;;;;;;;;;;5049051;28;20183;-83
2022/12/23 10:42:19;;;;;;;1.83;1.73;;;;;;;;;;5045513;28;20186;-83
2022/12/23 10:44:44;;;;;;;0.53;0.53;;;;;;;;;;5048842;28;20198;-82
2022/12/23 10:47:12;;;;;;;0.90;0.83;;;;;;;;;;5049927;28;20207;-83
2022/12/23 10:49:37;;;;;;;1.03;0.90;;;;;;;;;;5046816;28;20181;-82
2022/12/23 10:52:07;;;;;;;1.00;1.00;;;;;;;;;;5063829;28;20182;-83
2022/12/23 10:54:33;;;;;;;0.57;0.57;;;;;;;;;;5047819;28;20229;-83
2022/12/23 10:56:59;;;;;;;1.87;1.10;;;;;;;;;;5046358;28;20195;-83
2022/12/23 10:59:25;;;;;;;0.60;0.60;;;;;;;;;;5050202;28;20251;-83
2022/12/23 11:01:53;;;;;;;1.67;1.10;;;;;;;;;;5049988;28;20397;-83
2022/12/23 11:04:23;;;;;;;0.90;0.70;;;;;;;;;;5047766;28;20207;-83
2022/12/23 11:06:49;;;;;;;1.03;0.80;;;;;;;;;;5045680;28;20257;-82
2022/12/23 11:09:20;;;;;;;0.40;0.40;;;;;;;;;;5048543;28;20176;-83
2022/12/23 11:11:53;;;;;;;0.90;0.70;;;;;;;;;;5046241;28;20197;-83
2022/12/23 11:14:48;;;;;;;0.50;0.50;;;;;;;;;;5065039;28;20382;-84
2022/12/23 11:17:18;;;;;;;1.10;1.10;;;;;;;;;;5025025;28;20191;-83
2022/12/23 11:19:43;;;;;;;1.70;1.60;;;;;;;;;;5050439;28;20188;-83
2022/12/23 11:22:19;;;;;;;1.83;1.10;;;;;;;;;;5047302;28;20176;-83
2022/12/23 11:24:44;;;;;;;0.80;0.80;;;;;;;;;;5043756;28;20183;-82
2022/12/23 11:27:11;;;;;;;0.80;0.80;;;;;;;;;;5043125;28;20326;-83
2022/12/23 11:29:44;;;;;;;0.30;0.30;;;;;;;;;;5045960;28;20265;-82
2022/12/23 11:32:17;;;;;;;1.87;1.07;;;;;;;;;;5045966;28;20170;-82
2022/12/23 11:34:44;;;;;;;0.90;0.80;;;;;;;;;;5065559;28;20179;-83
2022/12/23 11:37:21;;;;;;;1.37;0.80;;;;;;;;;;5050819;28;20230;-83
2022/12/23 11:39:46;;;;;;;4.43;4.03;;;;;;;;;;5048964;28;20235;-83
2022/12/23 11:42:16;;;;;;;2.40;2.20;;;;;;;;;;5050049;28;20262;-83
2022/12/23 11:44:43;;;;;;;3.87;3.57;;;;;;;;;;5045127;28;20183;-82
2022/12/23 11:47:21;;;;;;;5.47;4.97;;;;;;;;;;5047930;28;20200;-83
2022/12/23 11:49:48;;;;;;;4.20;2.90;;;;;;;;;;5041100;28;20177;-83
2022/12/23 11:52:15;;;;;;;0.87;0.70;;;;;;;;;;5040977;28;20184;-83
2022/12/23 11:54:47;;;;;;;1.00;1.00;;;;;;;;;;5048138;28;20179;-82
2022/12/23 11:57:17;;;;;;;1.07;0.90;;;;;;;;;;5043698;28;20188;-83
2022/12/23 11:59:48;;;;;;;0.80;0.80;;;;;;;;;;5048828;28;20187;-83
2022/12/23 12:02:19;;;;;;;1.60;1.50;;;;;;;;;;5044593;28;20193;-83
2022/12/23 12:04:48;;;;;;;3.27;2.10;;;;;;;;;;5046610;28;20378;-83
2022/12/23 12:07:14;;;;;;;1.50;1.40;;;;;;;;;;5059316;28;20199;-83
2022/12/23 12:09:40;;;;;;;2.03;1.83;;;;;;;;;;5048366;28;20187;-83
2022/12/23 12:12:10;;;;;;;1.93;1.73;;;;;;;;;;5048195;28;20175;-83
2022/12/23 12:14:41;;;;;;;18.37;16.43;;;;;;;;;;5047083;28;20225;-82
2022/12/23 12:17:15;;;;;;;4.07;3.67;;;;;;;;;;5044531;28;20232;-83
2022/12/23 12:19:45;;;;;;;2.53;2.33;;;;;;;;;;5045560;28;20179;-84
2022/12/23 12:22:13;;;;;;;3.60;3.30;;;;;;;;;;5042844;28;20183;-82
2022/12/23 12:24:47;;;;;;;3.63;3.33;;;;;;;;;;5046909;28;20217;-83
2022/12/23 12:27:12;;;;;;;6.23;5.63;;;;;;;;;;5043814;28;20210;-83
2022/12/23 12:29:40;;;;;;;4.87;4.47;;;;;;;;;;5049014;28;20302;-84
2022/12/23 12:32:14;;;;;;;4.47;4.10;;;;;;;;;;5043762;28;20176;-83
2022/12/23 12:34:49;;;;;;;4.20;3.87;;;;;;;;;;5050404;28;20242;-84
2022/12/23 12:37:20;;;;;;;4.37;4.00;;;;;;;;;;5044989;28;20257;-84
2022/12/23 12:39:54;;;;;;;5.10;4.70;;;;;;;;;;5047478;28;20192;-84
2022/12/23 12:42:25;;;;;;;7.03;5.83;;;;;;;;;;5053204;28;20191;-84
2022/12/23 12:44:50;;;;;;;4.40;4.00;;;;;;;;;;5051033;28;20278;-84
2022/12/23 12:47:28;;;;;;;9.67;5.30;;;;;;;;;;5045250;28;20268;-84
2022/12/23 12:49:58;;;;;;;12.13;8.23;;;;;;;;;;5041270;28;20176;-84
2022/12/23 12:52:25;;;;;;;17.90;13.50;;;;;;;;;;5047820;28;20180;-84
2022/12/23 12:54:56;;;;;;;51.77;34.53;;;;;;;;;;5051277;28;20176;-84
2022/12/23 12:57:22;;;;;;;2.07;1.87;;;;;;;;;;5063044;28;20224;-84
2022/12/23 12:59:49;;;;;;;1.73;1.63;;;;;;;;;;5044287;28;20232;-84
2022/12/23 13:02:24;;;;;;;2.27;1.27;;;;;;;;;;5058345;28;20429;-84
2022/12/23 13:04:56;;;;;;;0.97;0.90;;;;;;;;;;5048436;28;20242;-84
2022/12/23 13:07:24;;;;;;;1.37;1.20;;;;;;;;;;5046972;28;20220;-84
2022/12/23 13:10:04;;;;;;;1.80;1.70;;;;;;;;;;5050151;28;20190;-84
2022/12/23 13:12:36;;;;;;;1.40;1.30;;;;;;;;;;5050203;28;20197;-84
2022/12/23 13:15:07;;;;;;;1.60;1.50;;;;;;;;;;5044141;28;20173;-84
2022/12/23 13:17:36;;;;;;;2.77;2.57;;;;;;;;;;5048908;28;20205;-84
2022/12/23 13:20:18;;;;;;;2.20;2.07;;;;;;;;;;5046474;28;20207;-84
2022/12/23 13:22:44;;;;;;;2.00;1.80;;;;;;;;;;5050488;28;20177;-84
2022/12/23 13:25:21;;;;;;;1.00;0.90;;;;;;;;;;5048456;28;20179;-84
2022/12/23 13:27:54;;;;;;;1.03;0.93;;;;;;;;;;5046385;28;20194;-84
2022/12/23 13:30:25;;;;;;;3.07;1.67;;;;;;;;;;5046121;28;20233;-84
2022/12/23 13:32:58;;;;;;;0.97;0.93;;;;;;;;;;5048561;28;20188;-84
2022/12/23 13:35:44;;;;;;;0.90;0.90;;;;;;;;;;5046124;28;20221;-84
2022/12/23 13:38:33;;;;;;;0.90;0.90;;;;;;;;;;5016398;28;20181;-84
2022/12/23 13:41:05;;;;;;;1.97;1.87;;;;;;;;;;5000809;28;20281;-84
2022/12/23 13:43:39;;;;;;;1.70;0.90;;;;;;;;;;5026103;28;20495;-84
2022/12/23 13:46:09;;;;;;;1.40;1.30;;;;;;;;;;5015075;28;20290;-84
2022/12/23 13:48:43;;;;;;;1.00;1.00;;;;;;;;;;5013544;28;20197;-84
2022/12/23 13:51:14;;;;;;;3.83;3.57;;;;;;;;;;5009770;28;20179;-83
2022/12/23 13:53:56;;;;;;;1.43;1.33;;;;;;;;;;5031707;28;20177;-83
2022/12/23 13:56:41;;;;;;;2.93;2.73;;;;;;;;;;5013199;28;20188;-83
2022/12/23 13:59:08;;;;;;;2.83;2.63;;;;;;;;;;5019329;28;20173;-83
2022/12/23 14:01:41;;;;;;;1.97;1.87;;;;;;;;;;5013177;28;20185;-83
2022/12/23 14:04:41;;;;;;;1.20;1.17;;;;;;;;;;5014694;28;20183;-84
2022/12/23 14:07:18;;;;;;;1.77;1.67;;;;;;;;;;4915636;29;20202;-83
2022/12/23 14:09:45;;;;;;;3.00;2.80;;;;;;;;;;4997226;28;20908;-83
2022/12/23 14:12:19;;;;;;;3.00;2.80;;;;;;;;;;5015068;28;20184;-84
2022/12/23 14:15:04;;;;;;;1.60;1.50;;;;;;;;;;5013241;28;20183;-83
2022/12/23 14:17:37;;;;;;;1.00;1.00;;;;;;;;;;4987722;28;20215;-84
2022/12/23 14:20:02;;;;;;;0.43;0.43;;;;;;;;;;5010839;28;20227;-83
2022/12/23 14:22:47;;;;;;;0.60;0.60;;;;;;;;;;5016319;28;20182;-84
2022/12/23 14:25:15;;;;;;;0.70;0.70;;;;;;;;;;5010631;28;20177;-83
2022/12/23 14:27:44;;;;;;;1.50;1.40;;;;;;;;;;5013054;28;20201;-84
2022/12/23 14:30:20;;;;;;;0.80;0.80;;;;;;;;;;5013801;28;20173;-83
2022/12/23 14:32:45;;;;;;;0.80;0.80;;;;;;;;;;5007309;28;20182;-84
2022/12/23 14:35:18;;;;;;;1.30;1.20;;;;;;;;;;5015476;28;20174;-84
2022/12/23 14:38:07;;;;;;;0.70;0.70;;;;;;;;;;5011148;28;20269;-83
2022/12/23 14:40:35;;;;;;;0.70;0.70;;;;;;;;;;4997329;28;20221;-83
2022/12/23 14:43:19;;;;;;;1.43;0.43;;;;;;;;;;5013224;28;20274;-83
2022/12/23 14:45:44;;;;;;;0.63;0.60;;;;;;;;;;5004342;28;20176;-83
2022/12/23 14:48:28;;;;;;;0.43;0.43;;;;;;;;;;5012042;28;20256;-83
2022/12/23 14:51:12;;;;;;;0.80;0.80;;;;;;;;;;5006676;28;20188;-83
2022/12/23 14:53:50;;;;;;;1.00;0.90;;;;;;;;;;5014764;28;20188;-83
2022/12/23 14:56:18;;;;;;;0.57;0.57;;;;;;;;;;5010900;28;20270;-84
2022/12/23 14:59:02;;;;;;;0.57;0.57;;;;;;;;;;5012949;28;20191;-83
2022/12/23 15:01:30;;;;;;;1.30;1.20;;;;;;;;;;4999452;28;20173;-83
2022/12/23 15:03:56;;;;;;;2.57;1.20;;;;;;;;;;5012696;28;20176;-83
2022/12/23 15:06:27;;;;;;;0.50;0.50;;;;;;;;;;5003693;28;20277;-83
2022/12/23 15:08:54;;;;;;;0.73;0.73;;;;;;;;;;5011186;28;20203;-83
2022/12/23 15:11:27;;;;;;;0.67;0.67;;;;;;;;;;5008521;28;20233;-83
2022/12/23 15:13:53;;;;;;;0.63;0.60;;;;;;;;;;5009391;28;20238;-83
2022/12/23 15:16:25;;;;;;;1.27;0.80;;;;;;;;;;5009275;28;20180;-83
2022/12/23 15:18:54;;;;;;;1.07;0.90;;;;;;;;;;5011668;28;20197;-83